Estación de El Palqui

Ultimos registro cada 15 minutos 41
Estación Fecha / Hora Temperatura Humedad Lluvia Velocidad Dirección Radiación Presion
41 El Palqui 01-09-2026 11:45 20,9 55 0 0,9 192 752 1016
40 El Palqui 01-09-2026 11:30 19,6 61 0 0 88 733 1016,4
39 El Palqui 01-09-2026 11:15 19,1 64 0 0,9 158 705 1017,1
38 El Palqui 01-09-2026 11:00 19,1 58 0 0,4 160 682 1017,3
37 El Palqui 01-09-2026 10:45 18,1 60 0 0 271 564 1017,8
36 El Palqui 01-09-2026 10:15 16,7 65 0 0,9 208 578 1018,7
35 El Palqui 01-09-2026 10:00 15,8 67 0 0,9 208 538 1019
34 El Palqui 01-09-2026 09:45 15,1 71 0 0,4 178 496 1019,3
33 El Palqui 01-09-2026 09:15 13,3 80 0 0 177 420 1019,1
32 El Palqui 01-09-2026 09:00 12,4 83 0 0,4 152 345 1018,9
31 El Palqui 01-09-2026 08:45 11,8 86 0 0 343 102 1018,6
30 El Palqui 01-09-2026 08:15 10,6 92 0 0 203 114 1018,2
29 El Palqui 01-09-2026 08:00 9,7 92 0 0 202 28 1018,2
28 El Palqui 01-09-2026 07:45 9,2 93 0 0 353 33 1017,5
27 El Palqui 01-09-2026 07:15 8,3 92 0 0 338 14 1018,1
26 El Palqui 01-09-2026 07:00 8,5 91 0 0 338 0 1017,4
25 El Palqui 01-09-2026 06:45 8,8 92 0 0 338 0 1017,3
24 El Palqui 01-09-2026 06:15 8,7 92 0 0,9 328 0 1018,2
23 El Palqui 01-09-2026 06:00 8,6 93 0 1,8 321 0 1018
22 El Palqui 01-09-2026 05:45 7,4 92 0,2 0,4 352 0 1018,4
21 El Palqui 01-09-2026 05:30 7,2 92 0 0 355 0 1018,3
20 El Palqui 01-09-2026 05:15 7,6 91 0 0 355 0 1018,1
19 El Palqui 01-09-2026 05:00 8,1 92 0 0 357 0 1017,9
18 El Palqui 01-09-2026 04:45 7,9 92 0 0 355 0 1018
17 El Palqui 01-09-2026 04:30 7,7 91 0 0,4 359 0 1018,5
16 El Palqui 01-09-2026 04:15 7,9 91 0 0,4 357 0 1018,7
15 El Palqui 01-09-2026 04:00 8,4 92 0 0 6 0 1018,8
14 El Palqui 01-09-2026 03:45 8,2 92 0 0,4 357 0 1018,9
13 El Palqui 01-09-2026 03:15 7,9 91 0 0,9 359 0 1019,5
12 El Palqui 01-09-2026 03:00 8,1 91 0 0 352 0 1019,5
11 El Palqui 01-09-2026 02:45 8,1 91 0 0,4 357 0 1019,6
10 El Palqui 01-09-2026 02:30 8,2 90 0 0 341 0 1019,7
9 El Palqui 01-09-2026 02:15 8,6 90 0 0 334 0 1019,9
8 El Palqui 01-09-2026 02:00 8,9 89 0 0 330 0 1020,1
7 El Palqui 01-09-2026 01:30 9,2 89 0 0,9 1 0 1020,6
6 El Palqui 01-09-2026 01:15 9,2 89 0 0 360 0 1020,7
5 El Palqui 01-09-2026 01:00 9,7 87 0 0 105 0 1021,1
4 El Palqui 01-09-2026 00:45 10,3 86 0 0 105 0 1020,9
3 El Palqui 01-09-2026 00:30 10,8 86 0 0 109 0 1020,8
2 El Palqui 01-09-2026 00:15 10,6 87 0 0 4 0 1020,6
1 El Palqui 01-09-2026 00:00 10,4 89 0 0,4 16 0 1020,7